sensor_id;sensor_type;location;lat;lon;timestamp;temperature;humidity
20891;DHT22;10605;52.968;8.844;2023-06-19T00:01:58;21.30;99.90
20891;DHT22;10605;52.968;8.844;2023-06-19T00:04:23;21.30;99.90
20891;DHT22;10605;52.968;8.844;2023-06-19T00:06:49;21.30;99.90
20891;DHT22;10605;52.968;8.844;2023-06-19T00:09:15;21.20;99.90
20891;DHT22;10605;52.968;8.844;2023-06-19T00:11:41;21.20;99.90
20891;DHT22;10605;52.968;8.844;2023-06-19T00:14:06;21.10;99.90
20891;DHT22;10605;52.968;8.844;2023-06-19T00:16:32;21.10;99.90
20891;DHT22;10605;52.968;8.844;2023-06-19T00:18:58;21.10;99.90
20891;DHT22;10605;52.968;8.844;2023-06-19T00:21:24;21.00;99.90
20891;DHT22;10605;52.968;8.844;2023-06-19T00:23:54;21.00;99.90
20891;DHT22;10605;52.968;8.844;2023-06-19T00:26:20;21.00;99.90
20891;DHT22;10605;52.968;8.844;2023-06-19T00:28:51;20.90;99.90
20891;DHT22;10605;52.968;8.844;2023-06-19T00:31:16;20.90;99.90
20891;DHT22;10605;52.968;8.844;2023-06-19T00:33:43;20.90;99.90
20891;DHT22;10605;52.968;8.844;2023-06-19T00:36:14;20.90;99.90
20891;DHT22;10605;52.968;8.844;2023-06-19T00:38:41;20.80;99.90
20891;DHT22;10605;52.968;8.844;2023-06-19T00:41:07;20.80;99.90
20891;DHT22;10605;52.968;8.844;2023-06-19T00:43:34;20.80;99.90
20891;DHT22;10605;52.968;8.844;2023-06-19T00:46:00;20.80;99.90
20891;DHT22;10605;52.968;8.844;2023-06-19T00:48:28;20.70;99.90
20891;DHT22;10605;52.968;8.844;2023-06-19T00:50:55;20.70;99.90
20891;DHT22;10605;52.968;8.844;2023-06-19T00:53:22;20.70;99.90
20891;DHT22;10605;52.968;8.844;2023-06-19T00:55:48;20.70;99.90
20891;DHT22;10605;52.968;8.844;2023-06-19T00:58:17;20.70;99.90
20891;DHT22;10605;52.968;8.844;2023-06-19T01:00:43;20.70;99.90
20891;DHT22;10605;52.968;8.844;2023-06-19T01:03:10;20.60;99.90
20891;DHT22;10605;52.968;8.844;2023-06-19T01:05:36;20.60;99.90
20891;DHT22;10605;52.968;8.844;2023-06-19T01:10:55;20.40;99.90
20891;DHT22;10605;52.968;8.844;2023-06-19T01:15:47;20.30;99.90
20891;DHT22;10605;52.968;8.844;2023-06-19T01:18:14;20.40;99.90
20891;DHT22;10605;52.968;8.844;2023-06-19T01:20:41;20.50;99.90
20891;DHT22;10605;52.968;8.844;2023-06-19T01:23:11;20.70;99.90
20891;DHT22;10605;52.968;8.844;2023-06-19T01:25:37;20.70;99.90
20891;DHT22;10605;52.968;8.844;2023-06-19T01:28:05;20.80;99.90
20891;DHT22;10605;52.968;8.844;2023-06-19T01:30:35;20.90;99.90
20891;DHT22;10605;52.968;8.844;2023-06-19T01:33:14;20.90;99.90
20891;DHT22;10605;52.968;8.844;2023-06-19T01:35:43;20.90;99.90
20891;DHT22;10605;52.968;8.844;2023-06-19T01:38:10;20.90;99.90
20891;DHT22;10605;52.968;8.844;2023-06-19T01:40:37;20.80;99.90
20891;DHT22;10605;52.968;8.844;2023-06-19T01:43:05;20.90;99.90
20891;DHT22;10605;52.968;8.844;2023-06-19T01:45:32;20.80;99.90
20891;DHT22;10605;52.968;8.844;2023-06-19T01:47:58;20.80;99.90
20891;DHT22;10605;52.968;8.844;2023-06-19T01:50:24;20.80;99.90
20891;DHT22;10605;52.968;8.844;2023-06-19T01:52:51;20.70;99.90
20891;DHT22;10605;52.968;8.844;2023-06-19T01:55:17;20.70;99.90
20891;DHT22;10605;52.968;8.844;2023-06-19T01:57:43;20.70;99.90
20891;DHT22;10605;52.968;8.844;2023-06-19T02:00:11;20.70;99.90
20891;DHT22;10605;52.968;8.844;2023-06-19T02:02:37;20.70;99.90
20891;DHT22;10605;52.968;8.844;2023-06-19T02:05:03;20.80;99.90
20891;DHT22;10605;52.968;8.844;2023-06-19T02:07:30;20.80;99.90
20891;DHT22;10605;52.968;8.844;2023-06-19T02:09:59;20.80;99.90
20891;DHT22;10605;52.968;8.844;2023-06-19T02:12:24;20.70;99.90
20891;DHT22;10605;52.968;8.844;2023-06-19T02:14:50;20.80;99.90
20891;DHT22;10605;52.968;8.844;2023-06-19T02:17:16;20.80;99.90
20891;DHT22;10605;52.968;8.844;2023-06-19T02:19:41;20.70;99.90
20891;DHT22;10605;52.968;8.844;2023-06-19T02:22:08;20.70;99.90
20891;DHT22;10605;52.968;8.844;2023-06-19T02:24:34;20.70;99.90
20891;DHT22;10605;52.968;8.844;2023-06-19T02:26:59;20.60;99.90
20891;DHT22;10605;52.968;8.844;2023-06-19T02:29:27;20.70;99.90
20891;DHT22;10605;52.968;8.844;2023-06-19T02:31:55;20.60;99.90
20891;DHT22;10605;52.968;8.844;2023-06-19T02:34:21;20.60;99.90
20891;DHT22;10605;52.968;8.844;2023-06-19T02:36:50;20.60;99.90
20891;DHT22;10605;52.968;8.844;2023-06-19T02:39:16;20.60;99.90
20891;DHT22;10605;52.968;8.844;2023-06-19T02:41:42;20.50;99.90
20891;DHT22;10605;52.968;8.844;2023-06-19T02:44:14;20.50;99.90
20891;DHT22;10605;52.968;8.844;2023-06-19T02:46:40;20.60;99.90
20891;DHT22;10605;52.968;8.844;2023-06-19T02:49:05;20.50;99.90
20891;DHT22;10605;52.968;8.844;2023-06-19T02:51:31;20.50;99.90
20891;DHT22;10605;52.968;8.844;2023-06-19T02:53:57;20.40;99.90
20891;DHT22;10605;52.968;8.844;2023-06-19T02:56:26;20.40;99.90
20891;DHT22;10605;52.968;8.844;2023-06-19T02:58:54;20.50;99.90
20891;DHT22;10605;52.968;8.844;2023-06-19T03:01:20;20.40;99.90
20891;DHT22;10605;52.968;8.844;2023-06-19T03:03:46;20.40;99.90
20891;DHT22;10605;52.968;8.844;2023-06-19T03:06:13;20.40;99.90
20891;DHT22;10605;52.968;8.844;2023-06-19T03:08:39;20.40;99.90
20891;DHT22;10605;52.968;8.844;2023-06-19T03:11:05;20.40;99.90
20891;DHT22;10605;52.968;8.844;2023-06-19T03:16:14;20.40;99.90
20891;DHT22;10605;52.968;8.844;2023-06-19T03:18:41;20.40;99.90
20891;DHT22;10605;52.968;8.844;2023-06-19T03:21:07;20.30;99.90
20891;DHT22;10605;52.968;8.844;2023-06-19T03:23:33;20.40;99.90
20891;DHT22;10605;52.968;8.844;2023-06-19T03:25:58;20.40;99.90
20891;DHT22;10605;52.968;8.844;2023-06-19T03:28:24;20.50;99.90
20891;DHT22;10605;52.968;8.844;2023-06-19T03:30:50;20.50;99.90
20891;DHT22;10605;52.968;8.844;2023-06-19T03:33:16;20.50;99.90
20891;DHT22;10605;52.968;8.844;2023-06-19T03:35:42;20.60;99.90
20891;DHT22;10605;52.968;8.844;2023-06-19T03:38:08;20.60;99.90
20891;DHT22;10605;52.968;8.844;2023-06-19T03:40:34;20.60;99.90
20891;DHT22;10605;52.968;8.844;2023-06-19T03:42:59;20.50;99.90
20891;DHT22;10605;52.968;8.844;2023-06-19T03:45:25;20.50;99.90
20891;DHT22;10605;52.968;8.844;2023-06-19T03:47:51;20.30;99.90
20891;DHT22;10605;52.968;8.844;2023-06-19T03:50:17;20.10;99.90
20891;DHT22;10605;52.968;8.844;2023-06-19T03:52:42;19.90;99.90
20891;DHT22;10605;52.968;8.844;2023-06-19T03:55:08;19.80;99.90
20891;DHT22;10605;52.968;8.844;2023-06-19T03:57:34;19.60;99.90
20891;DHT22;10605;52.968;8.844;2023-06-19T03:59:59;19.50;99.90
20891;DHT22;10605;52.968;8.844;2023-06-19T04:02:25;19.50;99.90
20891;DHT22;10605;52.968;8.844;2023-06-19T04:04:51;19.60;99.90
20891;DHT22;10605;52.968;8.844;2023-06-19T04:07:17;19.50;99.90
20891;DHT22;10605;52.968;8.844;2023-06-19T04:09:42;19.50;99.90
20891;DHT22;10605;52.968;8.844;2023-06-19T04:12:09;19.60;99.90
20891;DHT22;10605;52.968;8.844;2023-06-19T04:14:34;19.50;99.90
20891;DHT22;10605;52.968;8.844;2023-06-19T04:17:00;19.50;99.90
20891;DHT22;10605;52.968;8.844;2023-06-19T04:19:26;19.50;99.90
20891;DHT22;10605;52.968;8.844;2023-06-19T04:21:51;19.50;99.90
20891;DHT22;10605;52.968;8.844;2023-06-19T04:24:17;19.50;99.90
20891;DHT22;10605;52.968;8.844;2023-06-19T04:26:43;19.60;99.90
20891;DHT22;10605;52.968;8.844;2023-06-19T04:29:09;19.70;99.90
20891;DHT22;10605;52.968;8.844;2023-06-19T04:31:45;19.80;99.90
20891;DHT22;10605;52.968;8.844;2023-06-19T04:34:17;19.90;99.90
20891;DHT22;10605;52.968;8.844;2023-06-19T04:36:46;20.10;99.90
20891;DHT22;10605;52.968;8.844;2023-06-19T04:39:12;20.10;99.90
20891;DHT22;10605;52.968;8.844;2023-06-19T04:41:38;20.30;99.90
20891;DHT22;10605;52.968;8.844;2023-06-19T04:44:05;20.50;99.90
20891;DHT22;10605;52.968;8.844;2023-06-19T04:46:31;20.70;99.90
20891;DHT22;10605;52.968;8.844;2023-06-19T04:48:57;20.90;99.90
20891;DHT22;10605;52.968;8.844;2023-06-19T04:51:23;21.10;99.90
20891;DHT22;10605;52.968;8.844;2023-06-19T04:53:48;21.10;99.90
20891;DHT22;10605;52.968;8.844;2023-06-19T04:56:15;21.10;99.90
20891;DHT22;10605;52.968;8.844;2023-06-19T04:58:41;21.20;99.90
20891;DHT22;10605;52.968;8.844;2023-06-19T05:01:15;21.30;99.90
20891;DHT22;10605;52.968;8.844;2023-06-19T05:03:42;21.40;99.90
20891;DHT22;10605;52.968;8.844;2023-06-19T05:06:08;21.40;99.90
20891;DHT22;10605;52.968;8.844;2023-06-19T05:08:34;21.50;99.90
20891;DHT22;10605;52.968;8.844;2023-06-19T05:11:00;21.60;99.90
20891;DHT22;10605;52.968;8.844;2023-06-19T05:13:26;21.60;99.90
20891;DHT22;10605;52.968;8.844;2023-06-19T05:15:51;21.70;99.90
20891;DHT22;10605;52.968;8.844;2023-06-19T05:18:17;21.70;99.90
20891;DHT22;10605;52.968;8.844;2023-06-19T05:20:44;21.70;99.90
20891;DHT22;10605;52.968;8.844;2023-06-19T05:23:10;21.60;99.90
20891;DHT22;10605;52.968;8.844;2023-06-19T05:25:36;21.60;99.90
20891;DHT22;10605;52.968;8.844;2023-06-19T05:28:02;21.70;99.90
20891;DHT22;10605;52.968;8.844;2023-06-19T05:30:27;21.60;99.90
20891;DHT22;10605;52.968;8.844;2023-06-19T05:32:53;21.60;99.90
20891;DHT22;10605;52.968;8.844;2023-06-19T05:35:19;21.70;99.90
20891;DHT22;10605;52.968;8.844;2023-06-19T05:37:45;21.80;99.90
20891;DHT22;10605;52.968;8.844;2023-06-19T05:40:11;21.80;99.90
20891;DHT22;10605;52.968;8.844;2023-06-19T05:42:37;21.90;99.90
20891;DHT22;10605;52.968;8.844;2023-06-19T05:45:03;22.10;99.90
20891;DHT22;10605;52.968;8.844;2023-06-19T05:47:29;22.40;99.90
20891;DHT22;10605;52.968;8.844;2023-06-19T05:49:57;22.70;99.90
20891;DHT22;10605;52.968;8.844;2023-06-19T05:52:23;23.00;99.90
20891;DHT22;10605;52.968;8.844;2023-06-19T05:54:50;23.10;99.90
20891;DHT22;10605;52.968;8.844;2023-06-19T05:57:15;23.10;99.90
20891;DHT22;10605;52.968;8.844;2023-06-19T05:59:44;23.20;99.90
20891;DHT22;10605;52.968;8.844;2023-06-19T06:02:10;23.30;99.90
20891;DHT22;10605;52.968;8.844;2023-06-19T06:04:35;23.40;99.90
20891;DHT22;10605;52.968;8.844;2023-06-19T06:07:01;23.50;99.90
20891;DHT22;10605;52.968;8.844;2023-06-19T06:09:27;23.60;99.90
20891;DHT22;10605;52.968;8.844;2023-06-19T06:11:53;23.80;99.90
20891;DHT22;10605;52.968;8.844;2023-06-19T06:14:18;24.30;99.90
20891;DHT22;10605;52.968;8.844;2023-06-19T06:16:44;24.40;99.90
20891;DHT22;10605;52.968;8.844;2023-06-19T06:19:10;25.40;99.90
20891;DHT22;10605;52.968;8.844;2023-06-19T06:21:39;26.20;99.90
20891;DHT22;10605;52.968;8.844;2023-06-19T06:24:05;26.60;99.90
20891;DHT22;10605;52.968;8.844;2023-06-19T06:26:31;27.50;99.90
20891;DHT22;10605;52.968;8.844;2023-06-19T06:28:57;27.80;99.90
20891;DHT22;10605;52.968;8.844;2023-06-19T06:31:23;27.80;99.90
20891;DHT22;10605;52.968;8.844;2023-06-19T06:33:49;27.40;98.80
20891;DHT22;10605;52.968;8.844;2023-06-19T06:36:15;27.10;99.30
20891;DHT22;10605;52.968;8.844;2023-06-19T06:38:41;26.70;99.90
20891;DHT22;10605;52.968;8.844;2023-06-19T06:41:07;26.50;99.90
20891;DHT22;10605;52.968;8.844;2023-06-19T06:43:33;26.40;99.90
20891;DHT22;10605;52.968;8.844;2023-06-19T06:45:59;26.20;99.90
20891;DHT22;10605;52.968;8.844;2023-06-19T06:48:25;26.00;99.90
20891;DHT22;10605;52.968;8.844;2023-06-19T06:50:51;26.00;99.90
20891;DHT22;10605;52.968;8.844;2023-06-19T06:53:26;26.40;99.90
20891;DHT22;10605;52.968;8.844;2023-06-19T06:55:53;26.50;99.90
20891;DHT22;10605;52.968;8.844;2023-06-19T06:58:19;26.80;99.90
20891;DHT22;10605;52.968;8.844;2023-06-19T07:00:45;26.80;99.90
20891;DHT22;10605;52.968;8.844;2023-06-19T07:03:11;26.80;99.90
20891;DHT22;10605;52.968;8.844;2023-06-19T07:05:37;26.70;99.90
20891;DHT22;10605;52.968;8.844;2023-06-19T07:08:03;26.90;99.90
20891;DHT22;10605;52.968;8.844;2023-06-19T07:10:31;27.10;99.90
20891;DHT22;10605;52.968;8.844;2023-06-19T07:12:57;27.50;99.90
20891;DHT22;10605;52.968;8.844;2023-06-19T07:15:23;28.30;99.50
20891;DHT22;10605;52.968;8.844;2023-06-19T07:17:49;29.10;98.00
20891;DHT22;10605;52.968;8.844;2023-06-19T07:20:15;29.20;96.10
20891;DHT22;10605;52.968;8.844;2023-06-19T07:22:42;29.10;94.80
20891;DHT22;10605;52.968;8.844;2023-06-19T07:25:09;29.40;93.90
20891;DHT22;10605;52.968;8.844;2023-06-19T07:27:35;29.90;94.00
20891;DHT22;10605;52.968;8.844;2023-06-19T07:30:01;30.10;94.30
20891;DHT22;10605;52.968;8.844;2023-06-19T07:32:26;29.70;94.00
20891;DHT22;10605;52.968;8.844;2023-06-19T07:34:53;29.60;97.20
20891;DHT22;10605;52.968;8.844;2023-06-19T07:37:18;29.60;93.30
20891;DHT22;10605;52.968;8.844;2023-06-19T07:39:49;29.80;95.10
20891;DHT22;10605;52.968;8.844;2023-06-19T07:42:18;29.70;93.60
20891;DHT22;10605;52.968;8.844;2023-06-19T07:44:44;29.50;94.10
20891;DHT22;10605;52.968;8.844;2023-06-19T07:47:10;29.30;93.80
20891;DHT22;10605;52.968;8.844;2023-06-19T07:49:36;29.00;93.70
20891;DHT22;10605;52.968;8.844;2023-06-19T07:52:03;29.30;93.80
20891;DHT22;10605;52.968;8.844;2023-06-19T07:54:29;29.70;95.20
20891;DHT22;10605;52.968;8.844;2023-06-19T07:56:54;29.70;93.80
20891;DHT22;10605;52.968;8.844;2023-06-19T07:59:20;29.80;91.90
20891;DHT22;10605;52.968;8.844;2023-06-19T08:01:46;29.80;92.00
20891;DHT22;10605;52.968;8.844;2023-06-19T08:04:11;29.70;94.10
20891;DHT22;10605;52.968;8.844;2023-06-19T08:06:37;29.90;92.30
20891;DHT22;10605;52.968;8.844;2023-06-19T08:09:03;30.60;91.20
20891;DHT22;10605;52.968;8.844;2023-06-19T08:11:29;32.00;92.50
20891;DHT22;10605;52.968;8.844;2023-06-19T08:13:55;31.00;86.40
20891;DHT22;10605;52.968;8.844;2023-06-19T08:16:20;30.90;88.70
20891;DHT22;10605;52.968;8.844;2023-06-19T08:18:46;31.30;84.50
20891;DHT22;10605;52.968;8.844;2023-06-19T08:21:13;31.30;85.10
20891;DHT22;10605;52.968;8.844;2023-06-19T08:23:38;31.30;84.60
20891;DHT22;10605;52.968;8.844;2023-06-19T08:26:05;32.90;78.40
20891;DHT22;10605;52.968;8.844;2023-06-19T08:28:32;33.20;75.50
20891;DHT22;10605;52.968;8.844;2023-06-19T08:30:58;32.90;76.00
20891;DHT22;10605;52.968;8.844;2023-06-19T08:33:24;34.20;74.10
20891;DHT22;10605;52.968;8.844;2023-06-19T08:35:50;34.20;69.40
20891;DHT22;10605;52.968;8.844;2023-06-19T08:38:15;33.70;68.60
20891;DHT22;10605;52.968;8.844;2023-06-19T08:40:42;35.20;64.10
20891;DHT22;10605;52.968;8.844;2023-06-19T08:43:11;36.60;59.70
20891;DHT22;10605;52.968;8.844;2023-06-19T08:45:40;37.30;58.70
20891;DHT22;10605;52.968;8.844;2023-06-19T08:48:05;39.00;52.00
20891;DHT22;10605;52.968;8.844;2023-06-19T08:50:34;39.30;46.70
20891;DHT22;10605;52.968;8.844;2023-06-19T08:52:59;39.40;45.70
20891;DHT22;10605;52.968;8.844;2023-06-19T08:55:26;38.90;44.20
20891;DHT22;10605;52.968;8.844;2023-06-19T08:57:51;39.10;42.00
20891;DHT22;10605;52.968;8.844;2023-06-19T09:00:28;39.20;41.70
20891;DHT22;10605;52.968;8.844;2023-06-19T09:03:02;39.50;40.20
20891;DHT22;10605;52.968;8.844;2023-06-19T09:05:28;39.20;40.10
20891;DHT22;10605;52.968;8.844;2023-06-19T09:07:57;39.40;38.90
20891;DHT22;10605;52.968;8.844;2023-06-19T09:10:23;39.80;38.50
20891;DHT22;10605;52.968;8.844;2023-06-19T09:13:00;40.10;37.60
20891;DHT22;10605;52.968;8.844;2023-06-19T09:15:29;40.50;35.80
20891;DHT22;10605;52.968;8.844;2023-06-19T09:18:04;40.30;35.30
20891;DHT22;10605;52.968;8.844;2023-06-19T09:20:30;40.70;35.10
20891;DHT22;10605;52.968;8.844;2023-06-19T09:22:57;39.50;33.30
20891;DHT22;10605;52.968;8.844;2023-06-19T09:25:26;39.10;40.10
20891;DHT22;10605;52.968;8.844;2023-06-19T09:27:56;41.10;36.00
20891;DHT22;10605;52.968;8.844;2023-06-19T09:30:23;41.10;33.50
20891;DHT22;10605;52.968;8.844;2023-06-19T09:32:48;37.30;37.40
20891;DHT22;10605;52.968;8.844;2023-06-19T09:35:14;39.70;36.10
20891;DHT22;10605;52.968;8.844;2023-06-19T09:37:41;37.80;35.70
20891;DHT22;10605;52.968;8.844;2023-06-19T09:40:07;36.00;39.30
20891;DHT22;10605;52.968;8.844;2023-06-19T09:42:41;35.00;43.60
20891;DHT22;10605;52.968;8.844;2023-06-19T09:45:11;39.10;37.10
20891;DHT22;10605;52.968;8.844;2023-06-19T09:47:46;40.50;34.90
20891;DHT22;10605;52.968;8.844;2023-06-19T09:50:14;41.50;35.90
20891;DHT22;10605;52.968;8.844;2023-06-19T09:52:41;38.60;33.20
20891;DHT22;10605;52.968;8.844;2023-06-19T09:55:08;35.70;38.00
20891;DHT22;10605;52.968;8.844;2023-06-19T09:57:38;36.50;40.10
20891;DHT22;10605;52.968;8.844;2023-06-19T10:00:06;38.70;34.80
20891;DHT22;10605;52.968;8.844;2023-06-19T10:02:43;36.20;39.70
20891;DHT22;10605;52.968;8.844;2023-06-19T10:05:09;33.90;43.90
20891;DHT22;10605;52.968;8.844;2023-06-19T10:07:38;33.40;49.00
20891;DHT22;10605;52.968;8.844;2023-06-19T10:10:08;35.80;44.30
20891;DHT22;10605;52.968;8.844;2023-06-19T10:12:45;34.60;45.30
20891;DHT22;10605;52.968;8.844;2023-06-19T10:17:49;40.00;34.70
20891;DHT22;10605;52.968;8.844;2023-06-19T10:20:25;40.90;32.40
20891;DHT22;10605;52.968;8.844;2023-06-19T10:25:34;36.70;37.20
20891;DHT22;10605;52.968;8.844;2023-06-19T10:28:01;34.60;41.70
20891;DHT22;10605;52.968;8.844;2023-06-19T10:30:28;34.50;44.80
20891;DHT22;10605;52.968;8.844;2023-06-19T10:32:55;38.70;40.00
20891;DHT22;10605;52.968;8.844;2023-06-19T10:35:21;40.20;36.40
20891;DHT22;10605;52.968;8.844;2023-06-19T10:37:47;37.50;36.30
20891;DHT22;10605;52.968;8.844;2023-06-19T10:40:13;36.00;38.70
20891;DHT22;10605;52.968;8.844;2023-06-19T10:42:39;35.40;41.00
20891;DHT22;10605;52.968;8.844;2023-06-19T10:45:08;35.60;43.00
20891;DHT22;10605;52.968;8.844;2023-06-19T10:47:35;34.70;43.50
20891;DHT22;10605;52.968;8.844;2023-06-19T10:50:01;34.40;44.60
20891;DHT22;10605;52.968;8.844;2023-06-19T10:52:30;34.50;45.90
20891;DHT22;10605;52.968;8.844;2023-06-19T10:54:57;35.60;46.30
20891;DHT22;10605;52.968;8.844;2023-06-19T10:57:30;35.80;44.80
20891;DHT22;10605;52.968;8.844;2023-06-19T10:59:56;35.50;45.30
20891;DHT22;10605;52.968;8.844;2023-06-19T11:02:24;35.80;44.40
20891;DHT22;10605;52.968;8.844;2023-06-19T11:04:54;35.80;44.70
20891;DHT22;10605;52.968;8.844;2023-06-19T11:07:21;34.30;44.00
20891;DHT22;10605;52.968;8.844;2023-06-19T11:09:48;34.20;44.40
20891;DHT22;10605;52.968;8.844;2023-06-19T11:12:19;34.90;48.10
20891;DHT22;10605;52.968;8.844;2023-06-19T11:14:45;35.60;44.40
20891;DHT22;10605;52.968;8.844;2023-06-19T11:17:11;37.70;42.30
20891;DHT22;10605;52.968;8.844;2023-06-19T11:19:37;39.80;36.30
20891;DHT22;10605;52.968;8.844;2023-06-19T11:22:05;41.00;34.20
20891;DHT22;10605;52.968;8.844;2023-06-19T11:24:32;39.10;35.30
20891;DHT22;10605;52.968;8.844;2023-06-19T11:26:58;36.80;37.20
20891;DHT22;10605;52.968;8.844;2023-06-19T11:29:31;35.70;40.20
20891;DHT22;10605;52.968;8.844;2023-06-19T11:32:12;34.70;43.20
20891;DHT22;10605;52.968;8.844;2023-06-19T11:34:37;33.90;43.90
20891;DHT22;10605;52.968;8.844;2023-06-19T11:37:23;33.20;45.10
20891;DHT22;10605;52.968;8.844;2023-06-19T11:39:50;32.90;47.20
20891;DHT22;10605;52.968;8.844;2023-06-19T11:42:17;33.10;47.00
20891;DHT22;10605;52.968;8.844;2023-06-19T11:44:56;33.50;49.80
20891;DHT22;10605;52.968;8.844;2023-06-19T11:47:26;33.80;49.20
20891;DHT22;10605;52.968;8.844;2023-06-19T11:49:52;33.70;48.80
20891;DHT22;10605;52.968;8.844;2023-06-19T11:52:19;34.00;47.10
20891;DHT22;10605;52.968;8.844;2023-06-19T11:54:44;34.20;47.80
20891;DHT22;10605;52.968;8.844;2023-06-19T11:57:11;33.90;49.40
20891;DHT22;10605;52.968;8.844;2023-06-19T11:59:41;32.90;49.70
20891;DHT22;10605;52.968;8.844;2023-06-19T12:02:08;32.00;53.50
20891;DHT22;10605;52.968;8.844;2023-06-19T12:04:35;31.10;57.50
20891;DHT22;10605;52.968;8.844;2023-06-19T12:07:01;30.90;58.40
20891;DHT22;10605;52.968;8.844;2023-06-19T12:09:29;30.80;58.90
20891;DHT22;10605;52.968;8.844;2023-06-19T12:11:55;30.60;59.00
20891;DHT22;10605;52.968;8.844;2023-06-19T12:14:21;30.50;59.30
20891;DHT22;10605;52.968;8.844;2023-06-19T12:16:47;30.70;61.50
20891;DHT22;10605;52.968;8.844;2023-06-19T12:19:13;31.10;61.50
20891;DHT22;10605;52.968;8.844;2023-06-19T12:21:39;31.40;59.00
20891;DHT22;10605;52.968;8.844;2023-06-19T12:24:07;31.40;58.00
20891;DHT22;10605;52.968;8.844;2023-06-19T12:26:35;31.70;57.80
20891;DHT22;10605;52.968;8.844;2023-06-19T12:29:04;31.40;59.50
20891;DHT22;10605;52.968;8.844;2023-06-19T12:31:30;31.50;59.20
20891;DHT22;10605;52.968;8.844;2023-06-19T12:33:56;31.40;57.80
20891;DHT22;10605;52.968;8.844;2023-06-19T12:36:22;31.00;59.30
20891;DHT22;10605;52.968;8.844;2023-06-19T12:38:48;30.70;60.20
20891;DHT22;10605;52.968;8.844;2023-06-19T12:41:14;30.30;61.30
20891;DHT22;10605;52.968;8.844;2023-06-19T12:43:40;29.60;63.10
20891;DHT22;10605;52.968;8.844;2023-06-19T12:46:07;29.60;65.00
20891;DHT22;10605;52.968;8.844;2023-06-19T12:48:32;29.70;66.60
20891;DHT22;10605;52.968;8.844;2023-06-19T12:50:58;29.60;66.00
20891;DHT22;10605;52.968;8.844;2023-06-19T12:53:24;29.60;66.70
20891;DHT22;10605;52.968;8.844;2023-06-19T12:55:55;29.50;67.20
20891;DHT22;10605;52.968;8.844;2023-06-19T12:58:24;29.20;68.20
20891;DHT22;10605;52.968;8.844;2023-06-19T13:00:50;29.30;67.40
20891;DHT22;10605;52.968;8.844;2023-06-19T13:03:16;29.30;67.80
20891;DHT22;10605;52.968;8.844;2023-06-19T13:05:42;29.60;66.90
20891;DHT22;10605;52.968;8.844;2023-06-19T13:08:08;29.90;68.10
20891;DHT22;10605;52.968;8.844;2023-06-19T13:10:34;29.80;65.70
20891;DHT22;10605;52.968;8.844;2023-06-19T13:13:00;30.60;68.60
20891;DHT22;10605;52.968;8.844;2023-06-19T13:15:26;32.30;60.90
20891;DHT22;10605;52.968;8.844;2023-06-19T13:17:53;35.20;54.90
20891;DHT22;10605;52.968;8.844;2023-06-19T13:20:18;35.80;52.80
20891;DHT22;10605;52.968;8.844;2023-06-19T13:22:44;35.90;46.30
20891;DHT22;10605;52.968;8.844;2023-06-19T13:25:10;35.90;45.90
20891;DHT22;10605;52.968;8.844;2023-06-19T13:27:35;34.80;51.50
20891;DHT22;10605;52.968;8.844;2023-06-19T13:30:02;34.30;52.90
20891;DHT22;10605;52.968;8.844;2023-06-19T13:32:28;33.30;51.60
20891;DHT22;10605;52.968;8.844;2023-06-19T13:34:53;32.80;54.70
20891;DHT22;10605;52.968;8.844;2023-06-19T13:37:19;32.00;57.20
20891;DHT22;10605;52.968;8.844;2023-06-19T13:39:45;31.30;59.70
20891;DHT22;10605;52.968;8.844;2023-06-19T13:42:11;31.00;59.80
20891;DHT22;10605;52.968;8.844;2023-06-19T13:44:38;31.00;63.60
20891;DHT22;10605;52.968;8.844;2023-06-19T13:47:04;31.40;61.80
20891;DHT22;10605;52.968;8.844;2023-06-19T13:49:30;31.70;58.70
20891;DHT22;10605;52.968;8.844;2023-06-19T13:51:56;31.60;62.50
20891;DHT22;10605;52.968;8.844;2023-06-19T13:54:22;31.20;64.00
20891;DHT22;10605;52.968;8.844;2023-06-19T13:56:48;31.30;61.80
20891;DHT22;10605;52.968;8.844;2023-06-19T13:59:15;31.20;60.00
20891;DHT22;10605;52.968;8.844;2023-06-19T14:01:40;31.40;61.30
20891;DHT22;10605;52.968;8.844;2023-06-19T14:04:07;31.40;60.70
20891;DHT22;10605;52.968;8.844;2023-06-19T14:06:34;31.40;57.60
20891;DHT22;10605;52.968;8.844;2023-06-19T14:09:01;31.10;59.10
20891;DHT22;10605;52.968;8.844;2023-06-19T14:11:26;30.70;58.80
20891;DHT22;10605;52.968;8.844;2023-06-19T14:13:54;31.00;59.40
20891;DHT22;10605;52.968;8.844;2023-06-19T14:16:20;31.20;59.00
20891;DHT22;10605;52.968;8.844;2023-06-19T14:18:46;31.40;58.90
20891;DHT22;10605;52.968;8.844;2023-06-19T14:21:11;31.50;59.60
20891;DHT22;10605;52.968;8.844;2023-06-19T14:23:37;31.40;57.70
20891;DHT22;10605;52.968;8.844;2023-06-19T14:26:11;31.60;60.10
20891;DHT22;10605;52.968;8.844;2023-06-19T14:28:38;31.90;58.60
20891;DHT22;10605;52.968;8.844;2023-06-19T14:31:04;31.90;56.80
20891;DHT22;10605;52.968;8.844;2023-06-19T14:33:30;31.70;58.90
20891;DHT22;10605;52.968;8.844;2023-06-19T14:35:58;31.50;57.60
20891;DHT22;10605;52.968;8.844;2023-06-19T14:38:25;31.50;57.60
20891;DHT22;10605;52.968;8.844;2023-06-19T14:40:53;31.30;58.00
20891;DHT22;10605;52.968;8.844;2023-06-19T14:43:19;30.70;56.00
20891;DHT22;10605;52.968;8.844;2023-06-19T14:45:45;30.60;57.90
20891;DHT22;10605;52.968;8.844;2023-06-19T14:48:11;30.70;58.50
20891;DHT22;10605;52.968;8.844;2023-06-19T14:50:36;30.90;57.90
20891;DHT22;10605;52.968;8.844;2023-06-19T14:53:03;30.90;58.30
20891;DHT22;10605;52.968;8.844;2023-06-19T14:55:28;31.10;59.90
20891;DHT22;10605;52.968;8.844;2023-06-19T14:57:55;31.30;59.60
20891;DHT22;10605;52.968;8.844;2023-06-19T15:00:20;31.20;60.00
20891;DHT22;10605;52.968;8.844;2023-06-19T15:02:46;31.00;58.20
20891;DHT22;10605;52.968;8.844;2023-06-19T15:05:12;30.70;59.60
20891;DHT22;10605;52.968;8.844;2023-06-19T15:07:38;30.40;59.90
20891;DHT22;10605;52.968;8.844;2023-06-19T15:10:04;30.00;60.80
20891;DHT22;10605;52.968;8.844;2023-06-19T15:12:30;30.30;61.00
20891;DHT22;10605;52.968;8.844;2023-06-19T15:14:57;30.20;62.80
20891;DHT22;10605;52.968;8.844;2023-06-19T15:17:23;30.30;62.90
20891;DHT22;10605;52.968;8.844;2023-06-19T15:19:49;30.10;62.00
20891;DHT22;10605;52.968;8.844;2023-06-19T15:22:15;29.80;62.70
20891;DHT22;10605;52.968;8.844;2023-06-19T15:24:40;29.60;63.00
20891;DHT22;10605;52.968;8.844;2023-06-19T15:27:06;29.40;64.00
20891;DHT22;10605;52.968;8.844;2023-06-19T15:29:32;29.40;63.80
20891;DHT22;10605;52.968;8.844;2023-06-19T15:31:58;29.40;65.30
20891;DHT22;10605;52.968;8.844;2023-06-19T15:34:24;29.30;63.10
20891;DHT22;10605;52.968;8.844;2023-06-19T15:36:49;29.20;63.30
20891;DHT22;10605;52.968;8.844;2023-06-19T15:39:15;29.30;63.00
20891;DHT22;10605;52.968;8.844;2023-06-19T15:41:43;29.30;65.00